createdAt,value
2018-05-10T00:01:49.175Z,7.87
2018-05-10T00:04:16.737Z,8.97
2018-05-10T00:06:44.289Z,7.63
2018-05-10T00:09:11.803Z,8.30
2018-05-10T00:11:39.370Z,7.80
2018-05-10T00:14:07.004Z,9.63
2018-05-10T00:16:35.014Z,8.20
2018-05-10T00:19:02.579Z,9.27
2018-05-10T00:21:30.173Z,9.47
2018-05-10T00:23:57.724Z,9.25
2018-05-10T00:26:25.259Z,8.47
2018-05-10T00:28:52.865Z,7.87
2018-05-10T00:31:20.800Z,7.97
2018-05-10T00:33:48.340Z,7.73
2018-05-10T00:36:15.924Z,7.90
2018-05-10T00:38:43.514Z,9.07
2018-05-10T00:41:11.047Z,8.27
2018-05-10T00:43:38.593Z,9.07
2018-05-10T00:46:06.190Z,9.00
2018-05-10T00:48:33.743Z,9.70
2018-05-10T00:51:01.284Z,9.00
2018-05-10T00:53:28.829Z,9.00
2018-05-10T00:55:56.810Z,9.55
2018-05-10T00:58:24.387Z,8.70
2018-05-10T01:00:51.915Z,8.40
2018-05-10T01:03:19.489Z,9.23
2018-05-10T01:05:47.905Z,9.40
2018-05-10T01:08:15.840Z,9.00
2018-05-10T01:10:43.399Z,9.53
2018-05-10T01:13:11.002Z,8.93
2018-05-10T01:15:38.544Z,8.00
2018-05-10T01:18:06.519Z,9.00
2018-05-10T01:20:34.451Z,8.83
2018-05-10T01:23:02.134Z,9.30
2018-05-10T01:25:29.700Z,9.50
2018-05-10T01:27:57.273Z,9.57
2018-05-10T01:30:25.204Z,9.27
2018-05-10T01:32:52.782Z,9.20
2018-05-10T01:35:32.207Z,9.47
2018-05-10T01:37:59.801Z,10.63
2018-05-10T01:40:27.722Z,9.40
2018-05-10T01:42:55.343Z,9.70
2018-05-10T01:45:23.434Z,9.15
2018-05-10T01:47:50.976Z,8.93
2018-05-10T01:50:18.557Z,9.43
2018-05-10T01:52:46.098Z,9.90
2018-05-10T01:55:14.664Z,10.50
2018-05-10T01:57:42.594Z,9.33
2018-05-10T02:00:10.243Z,10.00
2018-05-10T02:02:37.887Z,10.40
2018-05-10T02:05:05.467Z,10.17
2018-05-10T02:07:33.020Z,9.20
2018-05-10T02:10:00.796Z,8.90
2018-05-10T02:12:28.387Z,9.20
2018-05-10T02:14:56.346Z,10.63
2018-05-10T02:17:23.910Z,9.55
2018-05-10T02:19:54.818Z,9.10
2018-05-10T02:22:23.140Z,9.60
2018-05-10T02:24:51.135Z,8.57
2018-05-10T02:27:18.667Z,9.20
2018-05-10T02:29:46.629Z,9.10
2018-05-10T02:32:14.213Z,10.17
2018-05-10T02:34:41.796Z,9.83
2018-05-10T02:37:09.391Z,11.30
2018-05-10T02:39:36.923Z,10.10
2018-05-10T02:42:04.487Z,9.93
2018-05-10T02:44:32.035Z,11.00
2018-05-10T02:46:59.625Z,10.80
2018-05-10T02:49:27.178Z,10.18
2018-05-10T02:51:54.728Z,9.98
2018-05-10T02:54:22.316Z,8.93
2018-05-10T02:56:49.878Z,10.37
2018-05-10T02:59:17.728Z,10.35
2018-05-10T03:01:45.315Z,10.30
2018-05-10T03:04:13.291Z,10.43
2018-05-10T03:06:41.243Z,10.75
2018-05-10T03:09:08.780Z,10.27
2018-05-10T03:11:36.396Z,9.43
2018-05-10T03:14:03.900Z,10.57
2018-05-10T03:16:31.516Z,10.80
2018-05-10T03:19:00.253Z,10.33
2018-05-10T03:21:27.851Z,10.38
2018-05-10T03:23:55.774Z,11.90
2018-05-10T03:26:23.308Z,11.97
2018-05-10T03:28:50.877Z,12.52
2018-05-10T03:31:18.425Z,11.20
2018-05-10T03:33:45.987Z,12.90
2018-05-10T03:36:13.630Z,12.33
2018-05-10T03:38:42.167Z,12.75
2018-05-10T03:41:09.720Z,13.53
2018-05-10T03:43:37.279Z,12.37
2018-05-10T03:46:04.836Z,13.10
2018-05-10T03:48:32.429Z,14.57
2018-05-10T03:50:59.991Z,13.60
2018-05-10T03:53:27.955Z,14.30
2018-05-10T03:55:55.943Z,13.93
2018-05-10T03:58:23.920Z,13.82
2018-05-10T04:00:51.893Z,14.17
2018-05-10T04:03:32.068Z,14.73
2018-05-10T04:06:12.336Z,14.53
2018-05-10T04:08:51.743Z,14.53
2018-05-10T04:11:34.856Z,14.23
2018-05-10T04:14:03.305Z,14.80
2018-05-10T04:16:31.353Z,14.80
2018-05-10T04:18:59.390Z,13.37
2018-05-10T04:21:27.404Z,14.43
2018-05-10T04:23:55.459Z,14.90
2018-05-10T04:26:23.366Z,12.90
2018-05-10T04:28:51.317Z,13.90
2018-05-10T04:31:19.286Z,13.70
2018-05-10T04:33:47.146Z,13.80
2018-05-10T04:36:15.164Z,13.77
2018-05-10T04:38:43.158Z,13.68
2018-05-10T04:41:11.541Z,12.63
2018-05-10T04:43:39.901Z,13.70
2018-05-10T04:46:07.957Z,13.80
2018-05-10T04:48:35.990Z,13.17
2018-05-10T04:51:04.058Z,12.65
2018-05-10T04:53:32.839Z,12.70
2018-05-10T04:56:00.473Z,12.90
2018-05-10T04:58:28.449Z,13.63
2018-05-10T05:00:56.564Z,12.70
2018-05-10T05:03:25.554Z,13.07
2018-05-10T05:05:53.212Z,12.60
2018-05-10T05:08:20.762Z,13.60
2018-05-10T05:10:48.546Z,12.23
2018-05-10T05:13:16.540Z,11.60
2018-05-10T05:15:44.426Z,12.10
2018-05-10T05:18:12.331Z,11.70
2018-05-10T05:20:40.107Z,12.70
2018-05-10T05:23:07.902Z,11.52
2018-05-10T05:25:35.782Z,12.43
2018-05-10T05:28:03.719Z,11.93
2018-05-10T05:30:31.550Z,14.70
2018-05-10T05:32:59.397Z,14.27
2018-05-10T05:35:27.491Z,15.80
2018-05-10T05:37:55.444Z,13.47
2018-05-10T05:40:23.068Z,14.97
2018-05-10T05:42:51.030Z,14.70
2018-05-10T05:45:18.566Z,16.57
2018-05-10T05:47:46.228Z,17.57
2018-05-10T05:50:13.804Z,17.43
2018-05-10T05:52:41.605Z,17.17
2018-05-10T05:55:09.159Z,16.73
2018-05-10T05:57:36.748Z,18.10
2018-05-10T06:00:04.309Z,16.63
2018-05-10T06:02:31.919Z,17.92
2018-05-10T06:04:59.481Z,17.00
2018-05-10T06:07:27.421Z,18.53
2018-05-10T06:09:54.974Z,18.13
2018-05-10T06:12:22.535Z,16.60
2018-05-10T06:14:50.119Z,17.53
2018-05-10T06:17:18.082Z,19.80
2018-05-10T06:19:45.873Z,19.30
2018-05-10T06:22:14.903Z,18.80
2018-05-10T06:24:42.719Z,21.30
2018-05-10T06:27:10.716Z,22.07
2018-05-10T06:29:38.341Z,21.60
2018-05-10T06:32:05.957Z,21.30
2018-05-10T06:34:33.876Z,24.53
2018-05-10T06:37:01.536Z,27.60
2018-05-10T06:39:29.347Z,29.23
2018-05-10T06:41:57.069Z,31.37
2018-05-10T06:44:24.857Z,32.97
2018-05-10T06:46:53.331Z,35.03
2018-05-10T06:49:21.256Z,34.00
2018-05-10T06:51:49.089Z,34.83
2018-05-10T06:54:17.076Z,34.75
2018-05-10T06:56:45.055Z,35.80
2018-05-10T06:59:13.111Z,36.38
2018-05-10T07:01:41.518Z,34.67
2018-05-10T07:04:09.368Z,36.73
2018-05-10T07:06:37.457Z,33.50
2018-05-10T07:09:09.184Z,35.27
2018-05-10T07:11:37.592Z,33.63
2018-05-10T07:14:05.559Z,36.97
2018-05-10T07:16:33.605Z,35.20
2018-05-10T07:19:01.496Z,36.37
2018-05-10T07:21:29.467Z,37.13
2018-05-10T07:23:57.338Z,38.60
2018-05-10T07:26:25.357Z,37.45
2018-05-10T07:28:53.181Z,36.03
2018-05-10T07:31:21.289Z,34.33
2018-05-10T07:33:49.210Z,35.67
2018-05-10T07:36:17.859Z,33.88
2018-05-10T07:38:45.815Z,35.83
2018-05-10T07:41:13.944Z,36.80
2018-05-10T07:43:41.677Z,36.17
2018-05-10T07:46:09.719Z,34.80
2018-05-10T07:48:37.522Z,34.67
2018-05-10T07:51:05.123Z,35.20
2018-05-10T07:53:32.821Z,33.57
2018-05-10T07:56:00.666Z,35.20
2018-05-10T07:58:28.645Z,32.83
2018-05-10T08:00:57.180Z,33.80
2018-05-10T08:03:24.737Z,32.80
2018-05-10T08:05:52.396Z,32.70
2018-05-10T08:08:19.967Z,32.53
2018-05-10T08:10:51.233Z,32.30
2018-05-10T08:13:19.224Z,30.47
2018-05-10T08:15:46.794Z,29.98
2018-05-10T08:18:14.368Z,29.87
2018-05-10T08:20:42.000Z,29.05
2018-05-10T08:23:16.719Z,31.10
2018-05-10T08:25:44.653Z,26.57
2018-05-10T08:28:12.202Z,27.90
2018-05-10T08:30:39.916Z,27.10
2018-05-10T08:33:07.460Z,25.02
2018-05-10T08:35:36.059Z,25.37
2018-05-10T08:38:04.004Z,25.62
2018-05-10T08:40:31.563Z,28.10
2018-05-10T08:42:59.109Z,25.10
2018-05-10T08:45:26.732Z,23.70
2018-05-10T08:47:54.294Z,21.37
2018-05-10T08:50:21.955Z,21.87
2018-05-10T08:52:49.554Z,20.30
2018-05-10T08:55:17.095Z,19.77
2018-05-10T08:57:44.671Z,20.10
2018-05-10T09:00:12.253Z,19.43
2018-05-10T09:02:40.510Z,17.27
2018-05-10T09:05:08.032Z,18.20
2018-05-10T09:07:35.697Z,16.33
2018-05-10T09:10:03.270Z,16.40
2018-05-10T09:12:30.887Z,15.67
2018-05-10T09:14:59.888Z,14.90
2018-05-10T09:17:27.861Z,15.40
2018-05-10T09:19:55.875Z,13.50
2018-05-10T09:22:24.437Z,15.80
2018-05-10T09:24:52.583Z,14.07
2018-05-10T09:27:20.214Z,14.27
2018-05-10T09:29:47.788Z,13.62
2018-05-10T09:32:15.829Z,14.17
2018-05-10T09:34:43.389Z,14.03
2018-05-10T09:37:10.946Z,10.30
2018-05-10T09:39:39.624Z,10.30
2018-05-10T09:42:07.206Z,12.13
2018-05-10T09:44:34.772Z,13.43
2018-05-10T09:47:02.360Z,12.97
2018-05-10T09:49:29.963Z,13.83
2018-05-10T09:51:57.537Z,14.43
2018-05-10T09:54:30.678Z,14.10
2018-05-10T09:56:58.242Z,14.70
2018-05-10T09:59:25.840Z,12.73
2018-05-10T10:01:53.391Z,14.90
2018-05-10T10:04:21.037Z,14.23
2018-05-10T10:06:48.599Z,15.53
2018-05-10T10:09:16.192Z,12.55
2018-05-10T10:11:43.826Z,11.85
2018-05-10T10:14:11.756Z,11.07
2018-05-10T10:16:39.723Z,11.18
2018-05-10T10:19:07.642Z,11.40
2018-05-10T10:21:35.213Z,9.93
2018-05-10T10:24:02.801Z,12.75
2018-05-10T10:26:30.759Z,12.63
2018-05-10T10:28:58.316Z,13.80
2018-05-10T10:31:25.943Z,14.13
2018-05-10T10:33:53.542Z,12.47
2018-05-10T10:36:21.080Z,11.53
2018-05-10T10:38:48.699Z,12.40
2018-05-10T10:41:16.380Z,11.90
2018-05-10T10:43:43.992Z,13.20
2018-05-10T10:46:11.996Z,13.50
2018-05-10T10:48:39.549Z,14.15
2018-05-10T10:51:07.144Z,13.77
2018-05-10T10:53:37.817Z,13.13
2018-05-10T10:56:05.395Z,15.60
2018-05-10T10:58:33.452Z,15.63
2018-05-10T11:01:01.066Z,13.20
2018-05-10T11:03:28.628Z,13.43
2018-05-10T11:05:57.459Z,13.15
2018-05-10T11:08:25.418Z,12.07
2018-05-10T11:10:53.215Z,11.73
2018-05-10T11:13:20.823Z,14.50
2018-05-10T11:15:48.413Z,13.00
2018-05-10T11:18:16.369Z,13.23
2018-05-10T11:20:44.323Z,12.33
2018-05-10T11:23:11.892Z,13.40
2018-05-10T11:25:40.347Z,12.30
2018-05-10T11:28:08.030Z,10.53
2018-05-10T11:30:35.604Z,11.30
2018-05-10T11:33:03.601Z,11.70
2018-05-10T11:35:31.524Z,11.83
2018-05-10T11:37:59.100Z,13.48
2018-05-10T11:40:27.033Z,11.43
2018-05-10T11:42:54.601Z,12.10
2018-05-10T11:45:22.184Z,10.87
2018-05-10T11:47:50.393Z,11.30
2018-05-10T11:50:18.542Z,11.87
2018-05-10T11:52:46.103Z,11.03
2018-05-10T11:55:14.071Z,10.50
2018-05-10T11:57:42.206Z,10.20
2018-05-10T12:00:09.819Z,9.30
2018-05-10T12:02:37.854Z,8.40
2018-05-10T12:05:05.819Z,8.15
2018-05-10T12:07:33.375Z,8.33
2018-05-10T12:10:01.024Z,9.27
2018-05-10T12:12:28.599Z,9.10
2018-05-10T12:14:56.160Z,9.83
2018-05-10T12:17:24.463Z,10.67
2018-05-10T12:19:52.043Z,11.97
2018-05-10T12:22:20.086Z,11.20
2018-05-10T12:24:47.670Z,10.70
2018-05-10T12:27:15.623Z,10.97
2018-05-10T12:29:43.733Z,12.47
2018-05-10T12:32:11.266Z,12.27
2018-05-10T12:34:39.225Z,13.67
2018-05-10T12:37:07.666Z,13.83
2018-05-10T12:39:35.267Z,15.40
2018-05-10T12:42:03.236Z,14.27
2018-05-10T12:44:31.210Z,16.52
2018-05-10T12:46:59.201Z,16.00
2018-05-10T12:49:26.766Z,15.52
2018-05-10T12:51:54.395Z,13.87
2018-05-10T12:54:22.372Z,15.53
2018-05-10T12:56:50.344Z,16.33
2018-05-10T12:59:18.321Z,13.20
2018-05-10T13:01:46.514Z,14.07
2018-05-10T13:04:14.048Z,14.97
2018-05-10T13:06:41.699Z,14.20
2018-05-10T13:09:09.196Z,15.67
2018-05-10T13:11:36.769Z,15.30
2018-05-10T13:14:05.089Z,18.83
2018-05-10T13:16:33.088Z,19.27
2018-05-10T13:19:00.635Z,15.82
2018-05-10T13:21:28.559Z,15.90
2018-05-10T13:23:56.127Z,18.63
2018-05-10T13:26:23.728Z,20.33
2018-05-10T13:28:51.758Z,18.70
2018-05-10T13:31:19.245Z,22.13
2018-05-10T13:33:48.155Z,23.13
2018-05-10T13:36:16.556Z,24.70
2018-05-10T13:38:44.441Z,26.37
2018-05-10T13:41:12.000Z,26.23
2018-05-10T13:43:39.598Z,28.47
2018-05-10T13:46:07.140Z,26.23
2018-05-10T13:48:34.708Z,24.63
2018-05-10T13:51:02.652Z,25.33
2018-05-10T13:53:33.821Z,28.37
2018-05-10T13:56:01.368Z,24.02
2018-05-10T13:58:29.841Z,23.70
2018-05-10T14:00:57.377Z,22.10
2018-05-10T14:03:25.685Z,21.23
2018-05-10T14:05:53.657Z,20.77
2018-05-10T14:08:21.737Z,19.33
2018-05-10T14:10:49.308Z,16.03
2018-05-10T14:13:16.839Z,15.17
2018-05-10T14:15:45.156Z,14.60
2018-05-10T14:18:13.124Z,12.47
2018-05-10T14:20:41.084Z,9.68
2018-05-10T14:23:08.650Z,9.13
2018-05-10T14:25:36.617Z,8.57
2018-05-10T14:28:04.216Z,8.03
2018-05-10T14:30:31.838Z,8.07
2018-05-10T14:33:00.027Z,8.27
2018-05-10T14:35:27.576Z,7.20
2018-05-10T14:37:56.847Z,7.13
2018-05-10T14:40:24.436Z,6.90
2018-05-10T14:42:52.387Z,5.37
2018-05-10T14:45:20.365Z,6.10
2018-05-10T14:47:47.923Z,5.33
2018-05-10T14:50:15.444Z,5.97
2018-05-10T14:52:43.194Z,6.40
2018-05-10T14:55:11.705Z,5.62
2018-05-10T14:57:39.272Z,6.40
2018-05-10T15:00:06.837Z,6.70
2018-05-10T15:02:34.372Z,6.60
2018-05-10T15:05:01.995Z,7.67
2018-05-10T15:07:29.566Z,9.20
2018-05-10T15:09:57.211Z,8.53
2018-05-10T15:12:24.759Z,8.35
2018-05-10T15:14:52.443Z,8.80
2018-05-10T15:17:20.029Z,9.55
2018-05-10T15:19:47.596Z,10.03
2018-05-10T15:22:15.660Z,12.90
2018-05-10T15:24:43.470Z,10.70
2018-05-10T15:27:12.176Z,10.65
2018-05-10T15:29:39.763Z,9.90
2018-05-10T15:32:07.372Z,10.33
2018-05-10T15:34:35.662Z,9.97
2018-05-10T15:37:04.241Z,9.37
2018-05-10T15:39:32.209Z,11.57
2018-05-10T15:42:00.166Z,9.60
2018-05-10T15:44:29.044Z,10.83
2018-05-10T15:46:57.299Z,11.00
2018-05-10T15:49:25.302Z,10.70
2018-05-10T15:51:54.227Z,11.00
2018-05-10T15:54:21.792Z,9.90
2018-05-10T15:56:49.370Z,10.40
2018-05-10T15:59:16.983Z,10.47
2018-05-10T16:01:44.513Z,10.20
2018-05-10T16:04:12.103Z,10.40
2018-05-10T16:06:40.152Z,11.17
2018-05-10T16:09:08.104Z,11.17
2018-05-10T16:11:36.180Z,10.48
2018-05-10T16:14:03.796Z,10.27
2018-05-10T16:16:31.393Z,13.37
2018-05-10T16:18:58.936Z,11.93
2018-05-10T16:21:26.670Z,12.07
2018-05-10T16:23:54.486Z,12.70
2018-05-10T16:26:22.298Z,12.77
2018-05-10T16:28:49.927Z,13.50
2018-05-10T16:31:18.779Z,13.63
2018-05-10T16:33:46.388Z,13.03
2018-05-10T16:36:14.173Z,13.57
2018-05-10T16:38:42.164Z,11.73
2018-05-10T16:41:09.723Z,13.05
2018-05-10T16:43:37.304Z,13.67
2018-05-10T16:46:04.880Z,14.33
2018-05-10T16:48:33.576Z,13.90
2018-05-10T16:51:02.099Z,13.83
2018-05-10T16:53:32.428Z,13.60
2018-05-10T16:56:01.607Z,14.20
2018-05-10T16:58:29.208Z,14.57
2018-05-10T17:01:00.096Z,15.82
2018-05-10T17:03:31.920Z,16.57
2018-05-10T17:05:59.496Z,15.45
2018-05-10T17:08:27.053Z,16.10
2018-05-10T17:10:57.466Z,16.37
2018-05-10T17:13:25.028Z,17.00
2018-05-10T17:15:52.606Z,19.42
2018-05-10T17:18:20.215Z,18.10
2018-05-10T17:20:47.760Z,18.53
2018-05-10T17:23:17.329Z,18.12
2018-05-10T17:25:45.828Z,19.33
2018-05-10T17:28:14.773Z,19.98
2018-05-10T17:30:42.520Z,20.80
2018-05-10T17:33:10.201Z,21.10
2018-05-10T17:35:37.796Z,18.20
2018-05-10T17:38:09.812Z,18.70
2018-05-10T17:40:37.437Z,20.50
2018-05-10T17:43:14.038Z,20.20
2018-05-10T17:45:42.128Z,21.40
2018-05-10T17:48:09.736Z,22.50
2018-05-10T17:50:37.364Z,24.00
2018-05-10T17:53:05.096Z,21.63
2018-05-10T17:55:34.413Z,22.20
2018-05-10T17:58:02.026Z,23.13
2018-05-10T18:00:29.706Z,21.27
2018-05-10T18:02:57.270Z,21.73
2018-05-10T18:05:24.833Z,22.40
2018-05-10T18:07:53.336Z,24.27
2018-05-10T18:10:21.487Z,22.00
2018-05-10T18:12:49.986Z,23.97
2018-05-10T18:15:17.552Z,24.10
2018-05-10T18:17:45.119Z,25.77
2018-05-10T18:20:12.709Z,24.37
2018-05-10T18:22:40.307Z,24.80
2018-05-10T18:25:08.278Z,24.80
2018-05-10T18:27:36.210Z,24.15
2018-05-10T18:30:03.803Z,25.00
2018-05-10T18:32:31.413Z,24.80
2018-05-10T18:34:59.035Z,24.70
2018-05-10T18:37:26.635Z,26.20
2018-05-10T18:39:54.234Z,24.80
2018-05-10T18:42:22.347Z,24.87
2018-05-10T18:44:49.952Z,25.83
2018-05-10T18:47:17.545Z,25.30
2018-05-10T18:49:45.345Z,24.77
2018-05-10T18:52:15.840Z,23.55
2018-05-10T18:54:44.541Z,23.90
2018-05-10T18:57:12.146Z,23.77
2018-05-10T18:59:39.729Z,25.33
2018-05-10T19:02:11.317Z,25.58
2018-05-10T19:04:38.945Z,24.87
2018-05-10T19:07:06.932Z,23.10
2018-05-10T19:09:34.741Z,25.23
2018-05-10T19:12:02.376Z,23.65
2018-05-10T19:14:29.949Z,24.90
2018-05-10T19:17:04.464Z,23.50
2018-05-10T19:19:32.092Z,23.70
2018-05-10T19:22:00.085Z,25.15
2018-05-10T19:24:27.675Z,22.70
2018-05-10T19:26:55.260Z,23.43
2018-05-10T19:29:23.237Z,24.20
2018-05-10T19:31:50.919Z,24.73
2018-05-10T19:34:18.829Z,23.60
2018-05-10T19:36:47.914Z,25.10
2018-05-10T19:39:24.889Z,23.53
2018-05-10T19:41:58.369Z,25.97
2018-05-10T19:44:31.293Z,25.90
2018-05-10T19:46:59.676Z,24.87
2018-05-10T19:49:28.448Z,24.70
2018-05-10T19:51:58.089Z,24.47
2018-05-10T19:54:26.256Z,23.30
2018-05-10T19:56:56.062Z,21.20
2018-05-10T19:59:23.671Z,23.63
2018-05-10T20:01:51.354Z,22.30
2018-05-10T20:04:18.938Z,22.90
2018-05-10T20:06:46.672Z,22.10
2018-05-10T20:09:14.226Z,23.70
2018-05-10T20:11:42.172Z,22.45
2018-05-10T20:14:10.143Z,20.63
2018-05-10T20:16:37.738Z,22.17
2018-05-10T20:19:05.686Z,22.67
2018-05-10T20:21:33.309Z,20.80
2018-05-10T20:24:00.919Z,21.07
2018-05-10T20:26:28.574Z,20.63
2018-05-10T20:28:56.206Z,23.70
2018-05-10T20:31:23.879Z,21.87
2018-05-10T20:33:51.463Z,21.20
2018-05-10T20:36:19.038Z,23.30
2018-05-10T20:38:46.857Z,21.85
2018-05-10T20:41:14.464Z,21.95
2018-05-10T20:43:42.060Z,21.77
2018-05-10T20:46:09.609Z,22.07
2018-05-10T20:48:37.161Z,22.77
2018-05-10T20:51:04.752Z,24.20
2018-05-10T20:53:32.353Z,23.40
2018-05-10T20:56:01.129Z,25.15
2018-05-10T21:25:46.572Z,22.23
2018-05-10T21:28:14.116Z,22.50
2018-05-10T21:30:42.102Z,21.90
2018-05-10T21:33:09.670Z,22.77
2018-05-10T21:35:37.663Z,21.07
2018-05-10T21:38:08.653Z,22.53
2018-05-10T21:40:37.913Z,24.57
2018-05-10T21:43:06.027Z,21.87
2018-05-10T21:45:33.584Z,22.20
2018-05-10T21:48:01.119Z,22.50
2018-05-10T21:50:45.415Z,22.17
2018-05-10T21:53:13.395Z,22.30
2018-05-10T21:55:42.619Z,22.90
2018-05-10T21:58:10.163Z,20.60
2018-05-10T22:00:37.712Z,21.55
2018-05-10T22:03:05.299Z,23.30
2018-05-10T22:05:32.859Z,21.87
2018-05-10T22:08:00.420Z,21.20
2018-05-10T22:10:27.977Z,24.03
2018-05-10T22:12:55.651Z,23.53
2018-05-10T22:15:23.200Z,22.40
2018-05-10T22:17:50.777Z,22.33
2018-05-10T22:20:18.355Z,20.70
2018-05-10T22:22:45.999Z,21.50
2018-05-10T22:25:13.488Z,21.63
2018-05-10T22:27:41.031Z,20.80
2018-05-10T22:30:08.930Z,21.75
2018-05-10T22:32:36.610Z,21.70
2018-05-10T22:35:04.226Z,21.00
2018-05-10T22:37:31.755Z,20.87
2018-05-10T22:39:59.383Z,23.08
2018-05-10T22:42:31.847Z,19.45
2018-05-10T22:44:59.539Z,21.23
2018-05-10T22:47:27.074Z,21.17
2018-05-10T22:49:54.680Z,22.37
2018-05-10T22:52:22.850Z,23.50
2018-05-10T22:54:50.419Z,23.10
2018-05-10T22:57:17.966Z,21.97
2018-05-10T22:59:45.561Z,22.47
2018-05-10T23:02:13.894Z,21.97
2018-05-10T23:04:41.483Z,21.37
2018-05-10T23:07:09.043Z,22.20
2018-05-10T23:09:36.788Z,21.57
2018-05-10T23:12:04.353Z,23.27
2018-05-10T23:14:31.864Z,22.87
2018-05-10T23:16:59.427Z,25.50
2018-05-10T23:19:26.986Z,25.40
2018-05-10T23:21:54.528Z,23.37
2018-05-10T23:24:25.651Z,23.43
2018-05-10T23:26:53.199Z,23.53
2018-05-10T23:29:20.783Z,21.95
2018-05-10T23:31:48.713Z,24.00
2018-05-10T23:34:16.290Z,23.10
2018-05-10T23:36:43.826Z,24.85
2018-05-10T23:39:11.385Z,26.97
2018-05-10T23:41:38.958Z,26.10
2018-05-10T23:44:06.526Z,24.63
2018-05-10T23:46:34.068Z,26.60
2018-05-10T23:49:01.641Z,24.27
2018-05-10T23:51:29.248Z,25.47
2018-05-10T23:53:56.832Z,25.42
2018-05-10T23:56:24.428Z,24.40
2018-05-10T23:58:52.006Z,24.40
